Dauntless Aviation
Airports Europe United Kingdom
EGMC
SEN

Southend Airport

Southend, UNITED KINGDOM

Airport Info
Suggest Updated Information for this Airport

Location

Latitude / Longitude: 51°34'17"N / 0°41'44"E
  51°34.284'N / 0°41.736'E
  51.5714 / 0.6956

Runway Information

Runway 06 /24

Dimensions: 5266 x 121 ft.
Surface: ASP
 
Runway 06
Runway 24
Latitude: 51.568136 51.574894
Longitude: 0.688233 0.703253
Elevation: 49 ft. 49 ft.
Runway true heading: 51.6 231.6
 

Instrument Procedures

  Aerodrome Chart
  Aircraft Parking/Docking Chart
  Control Zone and Control Area Chart

STARs (Standard Terminal Arrivals)

  RNAV5 DME/DME or GNSS) STAR - Instrument Rwy 05/23 KATHY 1S NEVIL 1S SAM 1S SOVAT 1S
  Standard Instrument Arrival Coding Tables - Rwy 05/23 SUMUM 1S XAMAN 1S SOVAT 1S
  Standard Instrument Arrival Coding Tables - Rwy 05/23 KATHY 1S NEVIL 1S SAM 1S
  RNAV5 (VOR/DME/ DME/DME or GNSS) STAR - Instrument Rwy 05/23 SUMUM 1S XAMAN 1S
  STAR - Instrument Rwy 05/23 SPEAR 2L 1M 2H
  STAR - Instrument Rwy 05/23 SPEAR 1A

IAPs (Instrument Approach Procedures)

  ILS/DME/NDB (L) Rwy 05 (CAT A/B/C)
  ILS/DME/NDB (L) Rwy 05 (Aircraft CAT D)
  LOC/DME/NDB (L) Rwy 05 (Aircraft CAT A/B/C)
  LOC/DME/NDB (L) Rwy 05 (Aircraft CAT D)
  SRA RTR 2NM Rwy 05 (Aircraft CAT A/B/C)
  ILS/DME/NDB (L) Rwy 23
  LOC/DME/NDB (L) Rwy 23
  SRA RTR 2NM Rwy 23 (CAT A/B/C)
  Aerodrome Information (Textual)
  RNAV Hold Coding Tables GODLU/ OKVAP/ GEGMU
  ATC Surveillance Minimum Altitude Chart
Satellite photo at:
Airport distance calculator
From:
Weather Reports

METAR

EGMC

EGMC 290520Z 19022KT 9999 SCT029 BKN045 10/06 Q0986
EGLC
24.5nm SW
EGLC 290520Z AUTO 20021G32KT 170V230 9000 -RA FEW031/// //////TCU 11/06 Q0985
EGSS
25.8nm NW
EGSS 290520Z AUTO 19022G35KT 9999 BKN020 OVC025 10/06 Q0984
EGUW
34.2nm N
EGUW 290450Z AUTO 20023G35KT 9999 BKN018/// 10/07 Q0985
EGMD
38.2nm SE
EGMD 290520Z AUTO 18026KT 9999 NCD 10/08 Q0988

TAF

EGMC
TAF EGMC 290206Z 2903/2912 21016G26KT 9999 SCT012 BKN020 TEMPO 2904/2908 6000 RA BKN014 BECMG 2905/2908 19026G36KT PROB30 TEMPO 2905/2909 +RA BKN008 BECMG 2908/2910 26014KT BECMG 2910/2912 23016G30KT
EGLC
24.5nm SW
TAF EGLC 290206Z 2903/2912 21016G26KT 9999 SCT012 BKN020 TEMPO 2904/2908 6000 RA BKN014 BECMG 2905/2908 19026G36KT PROB30 TEMPO 2905/2909 +RA BKN008 BECMG 2908/2910 26014KT BECMG 2910/2912 23016G30KT
EGSS
25.8nm NW
TAF AMD EGSS 290247Z 2902/0106 22016KT 9999 FEW008 BKN015 TEMPO 2902/2905 21022G32KT 4000 RADZ BKN008 BECMG 2905/2907 19022G32KT 4000 +RA BKN006 PROB30 TEMPO 2905/2907 19028G42KT BKN004 BECMG 2907/2909 26014KT 9999 NSW FEW025 BECMG 2909/2911 24018G30KT TEMPO 2911/2918 6000 SHRAGS
EGMD
38.2nm SE
TAF EGMD 290206Z 2903/2912 23025G35KT 9999 SCT015 PROB30 TEMPO 2903/2908 21030G45KT TEMPO 2904/2909 6000 RA PROB30 TEMPO 2905/2909 +RA BKN008 BECMG 2908/2910 26015KT BECMG 2910/2912 23025G35KT
Safelog

 

Dauntless Aviation

© 2007-2020 Dauntless Aviation, all rights reserved
Information provided via PilotNav comes from a variety of official and unofficial data sources. As errors are possible, do not use PilotNav for primary flight planning purposes. Verify any information that you receive via PilotNav with current and canonical charts and other official documents. The material in this database is subject to database copyrights held by Dauntless Aviation and may not be copied without the express permission of Dauntless Aviation - licenses for use of part of all of this data are available for purchase; enquire via the Dauntless Aviation helpdesk. A number of mechanisms and markers exist in the database to protect against and identify infringement / copyright. Automated queries against this website are stictly prohibited, and all activity is logged and analyzed.